createdAt,value
2022-12-18T00:00:09.679Z,39.50
2022-12-18T00:03:17.458Z,37.85
2022-12-18T00:06:20.168Z,41.72
2022-12-18T00:09:22.760Z,31.13
2022-12-18T00:12:26.952Z,37.00
2022-12-18T00:15:28.776Z,36.15
2022-12-18T00:18:30.811Z,36.85
2022-12-18T00:21:33.551Z,38.88
2022-12-18T00:24:35.724Z,38.73
2022-12-18T00:27:37.580Z,41.13
2022-12-18T00:30:39.447Z,38.15
2022-12-18T00:33:44.349Z,50.88
2022-12-18T00:36:48.614Z,39.42
2022-12-18T00:39:50.668Z,41.77
2022-12-18T00:42:57.318Z,42.90
2022-12-18T00:45:59.266Z,41.53
2022-12-18T00:49:01.460Z,40.55
2022-12-18T00:52:03.357Z,37.40
2022-12-18T00:55:06.639Z,35.13
2022-12-18T00:58:09.630Z,34.88
2022-12-18T01:01:11.531Z,38.15
2022-12-18T01:04:14.531Z,36.33
2022-12-18T01:07:16.430Z,36.15
2022-12-18T01:10:19.661Z,35.27
2022-12-18T01:13:21.506Z,33.72
2022-12-18T01:16:25.712Z,32.17
2022-12-18T01:19:27.621Z,30.98
2022-12-18T01:22:30.308Z,32.80
2022-12-18T01:25:32.189Z,31.80
2022-12-18T01:28:34.347Z,40.10
2022-12-18T01:31:37.813Z,51.28
2022-12-18T01:34:39.679Z,38.60
2022-12-18T01:37:41.530Z,35.13
2022-12-18T01:40:43.427Z,66.73
2022-12-18T01:43:57.876Z,42.53
2022-12-18T01:46:59.734Z,41.03
2022-12-18T01:50:09.817Z,37.08
2022-12-18T01:53:18.851Z,37.50
2022-12-18T01:56:22.391Z,33.93
2022-12-18T01:59:25.215Z,36.40
2022-12-18T02:02:29.421Z,32.55
2022-12-18T02:06:00.211Z,35.78
2022-12-18T02:09:29.504Z,32.20
2022-12-18T02:12:56.139Z,38.10
2022-12-18T02:16:11.666Z,33.70
2022-12-18T02:19:21.026Z,32.72
2022-12-18T02:22:44.609Z,32.22
2022-12-18T02:26:24.331Z,32.17
2022-12-18T02:29:33.790Z,30.87
2022-12-18T02:32:41.809Z,29.60
2022-12-18T02:35:46.346Z,27.33
2022-12-18T02:38:49.632Z,32.40
2022-12-18T02:41:52.874Z,29.45
2022-12-18T02:44:58.247Z,25.73
2022-12-18T03:57:05.819Z,32.28
2022-12-18T04:00:14.605Z,40.92
2022-12-18T04:03:22.664Z,32.50
2022-12-18T04:06:30.543Z,31.52
2022-12-18T04:09:35.165Z,37.20
2022-12-18T04:12:38.456Z,33.65
2022-12-18T04:15:41.477Z,36.13
2022-12-18T04:18:47.835Z,35.72
2022-12-18T04:21:56.634Z,38.28
2022-12-18T04:24:58.600Z,37.40
2022-12-18T04:28:07.354Z,32.38
2022-12-18T04:31:10.594Z,37.35
2022-12-18T05:07:17.613Z,31.33
2022-12-18T05:10:19.601Z,33.88
2022-12-18T05:13:21.451Z,37.28
2022-12-18T05:16:23.326Z,36.67
2022-12-18T05:19:25.287Z,40.28
2022-12-18T05:22:27.132Z,32.97
2022-12-18T05:25:28.951Z,37.08
2022-12-18T05:28:33.613Z,37.80
2022-12-18T05:31:39.652Z,37.40
2022-12-18T05:34:41.824Z,34.55
2022-12-18T05:37:43.734Z,47.60
2022-12-18T05:40:46.143Z,43.10
2022-12-18T05:43:48.075Z,42.67
2022-12-18T05:46:50.101Z,38.25
2022-12-18T05:49:52.047Z,41.50
2022-12-18T05:52:53.955Z,40.20
2022-12-18T05:56:00.530Z,37.35
2022-12-18T05:59:02.433Z,40.78
2022-12-18T06:02:04.925Z,44.47
2022-12-18T06:05:07.242Z,39.97
2022-12-18T06:08:09.876Z,30.13
2022-12-18T06:11:12.595Z,42.88
2022-12-18T06:14:14.567Z,44.45
2022-12-18T06:17:16.400Z,41.47
2022-12-18T09:52:53.779Z,37.30
2022-12-18T09:55:57.566Z,46.75
2022-12-18T09:59:01.486Z,47.77
2022-12-18T10:02:16.258Z,53.20
2022-12-18T10:05:26.260Z,61.85
2022-12-18T10:08:46.268Z,49.40
2022-12-18T10:12:27.257Z,59.25
2022-12-18T10:15:40.495Z,55.17
2022-12-18T10:18:48.205Z,41.67
2022-12-18T10:22:09.651Z,66.90
2022-12-18T11:02:10.785Z,58.20
2022-12-18T11:05:37.762Z,56.90
2022-12-18T11:08:41.859Z,51.50
2022-12-18T11:11:50.148Z,49.30
2022-12-18T11:14:54.399Z,52.03
2022-12-18T11:17:56.519Z,54.03
2022-12-18T11:21:11.042Z,55.08
2022-12-18T11:24:31.051Z,51.88
2022-12-18T11:27:33.792Z,51.92
2022-12-18T11:30:37.687Z,50.50
2022-12-18T11:34:04.799Z,53.53
2022-12-18T13:23:37.388Z,47.80
2022-12-18T13:26:39.392Z,50.47
2022-12-18T13:29:46.847Z,53.85
2022-12-18T13:32:52.988Z,53.72
2022-12-18T13:36:26.987Z,50.10
2022-12-18T13:39:35.232Z,51.53
2022-12-18T13:43:00.218Z,52.17
2022-12-18T13:46:26.852Z,58.47
2022-12-18T13:49:40.782Z,56.60
2022-12-18T13:52:44.700Z,65.68
2022-12-18T13:55:46.950Z,58.53
2022-12-18T13:59:25.301Z,61.10
2022-12-18T14:02:29.336Z,57.08
2022-12-18T14:05:33.568Z,58.33
2022-12-18T14:08:40.413Z,61.30
2022-12-18T14:11:48.342Z,51.73
2022-12-18T14:14:53.528Z,50.60
2022-12-18T14:18:39.187Z,60.95
2022-12-18T14:21:41.494Z,79.60
2022-12-18T14:24:43.558Z,78.25
2022-12-18T14:28:07.411Z,78.47
2022-12-18T14:31:19.451Z,56.77
2022-12-18T14:34:27.882Z,70.05
2022-12-18T14:37:29.731Z,96.25
2022-12-18T14:40:31.899Z,131.93
2022-12-18T14:43:36.384Z,92.20
2022-12-18T14:46:41.153Z,65.10
2022-12-18T14:49:44.139Z,57.67
2022-12-18T14:52:46.122Z,56.70
2022-12-18T14:55:49.077Z,52.83
2022-12-18T14:58:54.374Z,51.40
2022-12-18T15:02:03.286Z,56.27
2022-12-18T15:05:29.430Z,46.35
2022-12-18T15:08:38.095Z,48.40
2022-12-18T15:11:42.769Z,52.50
2022-12-18T15:14:44.819Z,53.33
2022-12-18T15:17:46.843Z,52.60
2022-12-18T15:20:53.627Z,59.92
2022-12-18T15:23:56.600Z,39.35
2022-12-18T15:26:59.543Z,61.50
2022-12-18T15:30:02.731Z,60.57
2022-12-18T15:33:26.821Z,54.77
2022-12-18T15:36:29.167Z,56.47
2022-12-18T15:39:31.303Z,77.40
2022-12-18T15:42:51.849Z,55.95
2022-12-18T15:45:54.094Z,45.20
2022-12-18T15:49:01.821Z,51.23
2022-12-18T15:52:04.668Z,56.70
2022-12-18T15:55:32.910Z,46.50
2022-12-18T15:58:35.254Z,52.85
2022-12-18T16:01:42.322Z,45.13
2022-12-18T16:04:46.911Z,53.70
2022-12-18T16:07:49.060Z,57.13
2022-12-18T16:10:51.184Z,58.45
2022-12-18T16:13:53.294Z,67.85
2022-12-18T16:17:02.331Z,63.60
2022-12-18T16:20:05.066Z,74.70
2022-12-18T16:23:07.604Z,68.10
2022-12-18T16:26:09.759Z,60.20
2022-12-18T16:29:12.231Z,61.40
2022-12-18T16:32:18.544Z,65.70
2022-12-18T16:35:21.103Z,61.33
2022-12-18T16:38:23.178Z,86.57
2022-12-18T16:41:32.282Z,72.35
2022-12-18T16:44:35.118Z,62.63
2022-12-18T16:47:38.964Z,65.93
2022-12-18T16:50:41.489Z,69.20
2022-12-18T16:53:44.176Z,68.00
2022-12-18T16:56:49.905Z,62.30
2022-12-18T16:59:52.436Z,61.25
2022-12-18T17:02:54.750Z,86.93
2022-12-18T17:06:03.243Z,86.83
2022-12-18T17:09:09.175Z,78.10
2022-12-18T17:12:11.459Z,64.30
2022-12-18T17:15:14.124Z,64.05
2022-12-18T17:18:16.284Z,83.77
2022-12-18T17:21:18.384Z,74.90
2022-12-18T17:24:21.516Z,62.83
2022-12-18T17:27:23.627Z,76.07
2022-12-18T19:16:27.450Z,29.00
2022-12-18T19:19:30.459Z,42.53
2022-12-18T19:22:32.634Z,30.85
2022-12-18T19:25:41.156Z,32.20
2022-12-18T19:28:45.270Z,29.70
2022-12-18T19:31:47.175Z,26.77
2022-12-18T19:34:49.352Z,33.10
2022-12-18T19:37:52.259Z,37.10
2022-12-18T19:40:54.388Z,30.23
2022-12-18T19:43:56.340Z,29.20
2022-12-18T19:46:58.356Z,34.05
2022-12-18T19:50:00.762Z,30.70
2022-12-18T19:53:03.307Z,31.33
2022-12-18T19:56:09.882Z,28.53
2022-12-18T19:59:12.703Z,22.93
2022-12-18T20:02:15.184Z,32.35
2022-12-18T20:05:17.406Z,26.92
2022-12-18T20:08:19.398Z,32.63
2022-12-18T20:11:21.852Z,16.27
2022-12-18T20:14:26.403Z,22.83
2022-12-18T20:17:28.638Z,26.00
2022-12-18T20:20:31.792Z,30.95
2022-12-18T20:23:34.340Z,31.42
2022-12-18T20:26:40.546Z,23.70
2022-12-18T21:01:55.687Z,28.98
2022-12-18T21:04:57.627Z,22.45
2022-12-18T21:07:59.657Z,28.73
2022-12-18T21:11:38.680Z,24.07
2022-12-18T21:14:40.583Z,17.73
2022-12-18T21:17:44.261Z,17.33
2022-12-18T21:20:46.776Z,25.40
